sensor_id;sensor_type;location;lat;lon;timestamp;pressure;altitude;pressure_sealevel;temperature;humidity
8585;BME280;7180;52.742;11.420;2022-08-23T05:13:29;101454.28;;;14.55;100.00
8585;BME280;7180;52.742;11.420;2022-08-23T05:15:55;101485.94;;;15.68;100.00
8585;BME280;7180;52.742;11.420;2022-08-23T05:18:21;101484.72;;;17.25;94.28
8585;BME280;7180;52.742;11.420;2022-08-23T05:20:47;101429.13;;;17.70;85.50
8585;BME280;7180;52.742;11.420;2022-08-23T05:23:12;101438.56;;;19.09;82.21
8585;BME280;7180;52.742;11.420;2022-08-23T05:25:37;101351.13;;;18.26;79.09
8585;BME280;7180;52.742;11.420;2022-08-23T05:28:23;101417.44;;;19.39;78.59
8585;BME280;7180;52.742;11.420;2022-08-23T05:31:11;101363.56;;;20.18;73.60
8585;BME280;7180;52.742;11.420;2022-08-23T05:33:38;101318.22;;;19.56;74.28
8585;BME280;7180;52.742;11.420;2022-08-23T05:36:04;101335.25;;;19.65;75.56
8585;BME280;7180;52.742;11.420;2022-08-23T05:38:30;101345.28;;;19.73;75.92
8585;BME280;7180;52.742;11.420;2022-08-23T05:40:56;101345.78;;;20.08;74.36
8585;BME280;7180;52.742;11.420;2022-08-23T05:43:23;101321.09;;;20.15;73.88
8585;BME280;7180;52.742;11.420;2022-08-23T05:46:19;101327.88;;;20.19;74.28
8585;BME280;7180;52.742;11.420;2022-08-23T05:48:46;101354.56;;;20.89;72.83
8585;BME280;7180;52.742;11.420;2022-08-23T05:53:38;101350.31;;;21.84;69.61
8585;BME280;7180;52.742;11.420;2022-08-23T05:56:12;101405.22;;;22.72;68.41
8585;BME280;7180;52.742;11.420;2022-08-23T05:58:38;101398.63;;;23.38;66.33
8585;BME280;7180;52.742;11.420;2022-08-23T06:01:03;101337.16;;;24.06;63.66
8585;BME280;7180;52.742;11.420;2022-08-23T06:03:29;101300.00;;;22.60;67.19
8585;BME280;7180;52.742;11.420;2022-08-23T06:05:58;101335.00;;;23.48;66.05
8585;BME280;7180;52.742;11.420;2022-08-23T06:08:24;101384.06;;;24.45;63.74
8585;BME280;7180;52.742;11.420;2022-08-23T06:11:01;101341.56;;;24.74;62.80
8585;BME280;7180;52.742;11.420;2022-08-23T06:13:27;101363.88;;;25.16;61.50
8585;BME280;7180;52.742;11.420;2022-08-23T06:15:52;101371.72;;;25.92;60.04
8585;BME280;7180;52.742;11.420;2022-08-23T06:18:17;101242.56;;;24.36;62.07
8585;BME280;7180;52.742;11.420;2022-08-23T06:20:43;101257.22;;;24.08;63.60
8585;BME280;7180;52.742;11.420;2022-08-23T06:23:09;101294.59;;;24.27;62.85
8585;BME280;7180;52.742;11.420;2022-08-23T06:25:38;101379.03;;;25.25;61.95
8585;BME280;7180;52.742;11.420;2022-08-23T06:28:06;101393.25;;;26.00;59.69
8585;BME280;7180;52.742;11.420;2022-08-23T06:30:31;101263.59;;;24.90;60.91
8585;BME280;7180;52.742;11.420;2022-08-23T06:32:56;101341.25;;;25.67;60.64
8585;BME280;7180;52.742;11.420;2022-08-23T06:35:21;101278.38;;;25.91;58.90
8585;BME280;7180;52.742;11.420;2022-08-23T06:37:47;101372.84;;;26.37;59.52
8585;BME280;7180;52.742;11.420;2022-08-23T06:40:13;101324.25;;;25.50;60.64
8585;BME280;7180;52.742;11.420;2022-08-23T06:42:38;101239.72;;;25.35;59.49
8585;BME280;7180;52.742;11.420;2022-08-23T06:45:03;101396.56;;;26.50;58.89
8585;BME280;7180;52.742;11.420;2022-08-23T06:47:29;101308.78;;;26.86;57.17
8585;BME280;7180;52.742;11.420;2022-08-23T06:49:55;101357.09;;;27.34;56.24
8585;BME280;7180;52.742;11.420;2022-08-23T06:52:21;101365.69;;;27.75;56.13
8585;BME280;7180;52.742;11.420;2022-08-23T06:54:46;101336.63;;;27.09;58.37
8585;BME280;7180;52.742;11.420;2022-08-23T06:57:12;101228.34;;;26.82;56.76
8585;BME280;7180;52.742;11.420;2022-08-23T06:59:38;101310.59;;;27.16;56.57
8585;BME280;7180;52.742;11.420;2022-08-23T07:02:06;101302.41;;;27.24;56.27
8585;BME280;7180;52.742;11.420;2022-08-23T07:04:37;101283.66;;;27.53;55.26
8585;BME280;7180;52.742;11.420;2022-08-23T07:07:04;101289.97;;;27.46;55.72
8585;BME280;7180;52.742;11.420;2022-08-23T07:09:30;101178.16;;;26.73;56.03
8585;BME280;7180;52.742;11.420;2022-08-23T07:11:57;101249.34;;;26.94;55.96
8585;BME280;7180;52.742;11.420;2022-08-23T07:14:23;101152.34;;;25.70;58.34
8585;BME280;7180;52.742;11.420;2022-08-23T07:16:57;101191.56;;;24.60;61.68
8585;BME280;7180;52.742;11.420;2022-08-23T07:19:27;101222.25;;;24.41;63.03
8585;BME280;7180;52.742;11.420;2022-08-23T07:21:53;101266.06;;;24.34;64.11
8585;BME280;7180;52.742;11.420;2022-08-23T07:24:21;101282.03;;;24.35;64.11
8585;BME280;7180;52.742;11.420;2022-08-23T07:26:48;101271.06;;;24.21;64.47
8585;BME280;7180;52.742;11.420;2022-08-23T07:29:15;101259.06;;;23.82;64.67
8585;BME280;7180;52.742;11.420;2022-08-23T07:31:44;101237.78;;;23.88;63.82
8585;BME280;7180;52.742;11.420;2022-08-23T07:34:10;101274.38;;;23.63;65.25
8585;BME280;7180;52.742;11.420;2022-08-23T07:36:36;101256.34;;;23.56;65.20
8585;BME280;7180;52.742;11.420;2022-08-23T07:39:04;101248.31;;;23.30;66.00
8585;BME280;7180;52.742;11.420;2022-08-23T07:41:30;101300.81;;;23.50;66.07
8585;BME280;7180;52.742;11.420;2022-08-23T07:43:57;101275.81;;;23.32;66.09
8585;BME280;7180;52.742;11.420;2022-08-23T07:46:25;101259.84;;;22.96;66.70
8585;BME280;7180;52.742;11.420;2022-08-23T07:48:52;101255.63;;;22.48;67.72
8585;BME280;7180;52.742;11.420;2022-08-23T07:51:18;101274.38;;;22.58;67.28
8585;BME280;7180;52.742;11.420;2022-08-23T07:53:43;101322.09;;;22.72;67.98
8585;BME280;7180;52.742;11.420;2022-08-23T07:56:14;101262.53;;;22.78;65.27
8585;BME280;7180;52.742;11.420;2022-08-23T07:58:40;101298.91;;;22.98;65.23
8585;BME280;7180;52.742;11.420;2022-08-23T08:01:09;101288.81;;;22.92;65.20
8585;BME280;7180;52.742;11.420;2022-08-23T08:03:37;101314.03;;;22.99;66.39
8585;BME280;7180;52.742;11.420;2022-08-23T08:06:25;101289.72;;;22.83;66.27
8585;BME280;7180;52.742;11.420;2022-08-23T08:08:51;101280.50;;;22.68;66.36
8585;BME280;7180;52.742;11.420;2022-08-23T08:11:18;101315.91;;;22.89;66.09
8585;BME280;7180;52.742;11.420;2022-08-23T08:13:45;101324.81;;;22.90;67.56
8585;BME280;7180;52.742;11.420;2022-08-23T08:16:24;101335.09;;;22.94;67.73
8585;BME280;7180;52.742;11.420;2022-08-23T08:18:51;101344.63;;;23.06;67.56
8585;BME280;7180;52.742;11.420;2022-08-23T08:21:17;101336.72;;;23.05;67.75
8585;BME280;7180;52.742;11.420;2022-08-23T08:23:43;101307.22;;;22.87;67.00
8585;BME280;7180;52.742;11.420;2022-08-23T08:26:08;101314.59;;;22.76;67.96
8585;BME280;7180;52.742;11.420;2022-08-23T08:28:35;101370.75;;;23.04;68.52
8585;BME280;7180;52.742;11.420;2022-08-23T08:31:01;101338.72;;;23.03;67.56
8585;BME280;7180;52.742;11.420;2022-08-23T08:33:27;101339.63;;;23.11;67.48
8585;BME280;7180;52.742;11.420;2022-08-23T08:35:54;101317.84;;;22.97;67.38
8585;BME280;7180;52.742;11.420;2022-08-23T08:38:19;101325.28;;;22.85;68.25
8585;BME280;7180;52.742;11.420;2022-08-23T08:40:49;101315.16;;;22.97;66.43
8585;BME280;7180;52.742;11.420;2022-08-23T08:43:29;101309.97;;;22.95;66.05
8585;BME280;7180;52.742;11.420;2022-08-23T08:46:09;101301.53;;;22.90;66.65
8585;BME280;7180;52.742;11.420;2022-08-23T08:48:41;101309.34;;;23.01;66.54
8585;BME280;7180;52.742;11.420;2022-08-23T08:51:36;101319.19;;;23.10;66.26
8585;BME280;7180;52.742;11.420;2022-08-23T08:54:08;101249.44;;;23.10;62.94
8585;BME280;7180;52.742;11.420;2022-08-23T08:56:37;101253.19;;;23.00;63.41
8585;BME280;7180;52.742;11.420;2022-08-23T08:59:06;101249.19;;;23.04;63.47
8585;BME280;7180;52.742;11.420;2022-08-23T09:01:34;101294.19;;;23.10;64.30
8585;BME280;7180;52.742;11.420;2022-08-23T09:04:01;101268.38;;;23.09;64.05
8585;BME280;7180;52.742;11.420;2022-08-23T09:06:35;101274.81;;;23.16;64.79
8585;BME280;7180;52.742;11.420;2022-08-23T09:11:58;101238.84;;;23.26;62.50
8585;BME280;7180;52.742;11.420;2022-08-23T09:14:46;101207.72;;;23.33;60.56
8585;BME280;7180;52.742;11.420;2022-08-23T09:17:51;101246.78;;;23.53;61.60
8585;BME280;7180;52.742;11.420;2022-08-23T09:20:18;101209.84;;;23.47;60.83
8585;BME280;7180;52.742;11.420;2022-08-23T09:22:47;101202.53;;;23.57;60.05
8585;BME280;7180;52.742;11.420;2022-08-23T09:25:14;101221.38;;;23.65;60.98
8585;BME280;7180;52.742;11.420;2022-08-23T09:27:41;101217.00;;;23.64;61.27
8585;BME280;7180;52.742;11.420;2022-08-23T09:30:09;101231.25;;;23.65;60.92
8585;BME280;7180;52.742;11.420;2022-08-23T09:32:38;101223.53;;;23.62;61.14
8585;BME280;7180;52.742;11.420;2022-08-23T09:35:17;101220.38;;;23.67;61.63
8585;BME280;7180;52.742;11.420;2022-08-23T09:37:53;101200.22;;;23.62;61.18
8585;BME280;7180;52.742;11.420;2022-08-23T09:40:30;101226.38;;;23.60;62.00
8585;BME280;7180;52.742;11.420;2022-08-23T09:43:19;101217.72;;;23.75;61.25
8585;BME280;7180;52.742;11.420;2022-08-23T09:48:34;101196.56;;;23.72;61.05
8585;BME280;7180;52.742;11.420;2022-08-23T09:51:23;101210.53;;;23.83;61.07
8585;BME280;7180;52.742;11.420;2022-08-23T09:54:11;101231.16;;;23.75;62.22
8585;BME280;7180;52.742;11.420;2022-08-23T09:56:43;101255.13;;;23.94;62.38
8585;BME280;7180;52.742;11.420;2022-08-23T09:59:43;101213.84;;;23.69;62.46
8585;BME280;7180;52.742;11.420;2022-08-23T10:02:23;101214.44;;;23.89;61.62
8585;BME280;7180;52.742;11.420;2022-08-23T10:05:05;101188.53;;;24.05;59.63
8585;BME280;7180;52.742;11.420;2022-08-23T10:07:40;101167.56;;;24.09;59.14
8585;BME280;7180;52.742;11.420;2022-08-23T10:10:21;101152.28;;;24.09;58.74
8585;BME280;7180;52.742;11.420;2022-08-23T10:12:48;101180.53;;;24.21;58.98
8585;BME280;7180;52.742;11.420;2022-08-23T10:15:13;101134.81;;;24.05;57.94
8585;BME280;7180;52.742;11.420;2022-08-23T10:17:53;101198.56;;;24.37;58.95
8585;BME280;7180;52.742;11.420;2022-08-23T10:20:32;101171.03;;;24.51;57.63
8585;BME280;7180;52.742;11.420;2022-08-23T10:23:19;101151.69;;;24.39;57.32
8585;BME280;7180;52.742;11.420;2022-08-23T10:25:53;101131.31;;;24.13;58.31
8585;BME280;7180;52.742;11.420;2022-08-23T10:28:46;101130.63;;;24.11;57.48
8585;BME280;7180;52.742;11.420;2022-08-23T10:31:51;101129.13;;;24.16;57.45
8585;BME280;7180;52.742;11.420;2022-08-23T10:37:04;101070.78;;;23.93;57.29
8585;BME280;7180;52.742;11.420;2022-08-23T10:39:32;101083.94;;;24.04;56.66
8585;BME280;7180;52.742;11.420;2022-08-23T10:42:03;101113.22;;;24.31;56.41
8585;BME280;7180;52.742;11.420;2022-08-23T10:44:34;101124.13;;;24.37;56.82
8585;BME280;7180;52.742;11.420;2022-08-23T10:50:11;101141.19;;;24.70;56.74
8585;BME280;7180;52.742;11.420;2022-08-23T10:55:29;101122.84;;;24.65;56.58
8585;BME280;7180;52.742;11.420;2022-08-23T10:58:05;101131.28;;;24.79;56.78
8585;BME280;7180;52.742;11.420;2022-08-23T11:00:33;101118.66;;;24.87;55.74
8585;BME280;7180;52.742;11.420;2022-08-23T11:05:39;101109.25;;;24.75;56.44
8585;BME280;7180;52.742;11.420;2022-08-23T11:08:08;101114.44;;;24.85;56.32
8585;BME280;7180;52.742;11.420;2022-08-23T11:18:06;101119.81;;;24.68;56.75
8585;BME280;7180;52.742;11.420;2022-08-23T11:23:15;101075.28;;;24.98;54.41
8585;BME280;7180;52.742;11.420;2022-08-23T11:25:42;101059.81;;;25.00;54.44
8585;BME280;7180;52.742;11.420;2022-08-23T11:34:00;101047.38;;;24.91;54.93
8585;BME280;7180;52.742;11.420;2022-08-23T11:36:28;100986.06;;;24.71;54.68
8585;BME280;7180;52.742;11.420;2022-08-23T11:41:34;101024.47;;;25.03;53.80
8585;BME280;7180;52.742;11.420;2022-08-23T11:46:34;101028.97;;;25.19;53.60
8585;BME280;7180;52.742;11.420;2022-08-23T11:49:20;101003.09;;;25.10;53.49
8585;BME280;7180;52.742;11.420;2022-08-23T11:57:43;101003.25;;;25.16;53.10
8585;BME280;7180;52.742;11.420;2022-08-23T12:00:23;101020.41;;;25.23;53.17
8585;BME280;7180;52.742;11.420;2022-08-23T12:02:57;101042.56;;;25.33;53.48
8585;BME280;7180;52.742;11.420;2022-08-23T12:06:04;101026.72;;;25.46;53.02
8585;BME280;7180;52.742;11.420;2022-08-23T12:08:31;101021.31;;;25.54;52.90
8585;BME280;7180;52.742;11.420;2022-08-23T12:11:01;101053.94;;;25.59;53.50
8585;BME280;7180;52.742;11.420;2022-08-23T12:13:43;101056.66;;;25.51;54.06
8585;BME280;7180;52.742;11.420;2022-08-23T12:18:44;101024.22;;;25.45;53.44
8585;BME280;7180;52.742;11.420;2022-08-23T12:21:30;101008.66;;;25.55;53.02
8585;BME280;7180;52.742;11.420;2022-08-23T12:24:13;101030.50;;;25.68;53.22
8585;BME280;7180;52.742;11.420;2022-08-23T12:26:46;101086.09;;;25.92;53.64
8585;BME280;7180;52.742;11.420;2022-08-23T12:32:33;101033.78;;;25.47;54.61
8585;BME280;7180;52.742;11.420;2022-08-23T12:37:56;101040.91;;;25.71;53.98
8585;BME280;7180;52.742;11.420;2022-08-23T12:40:38;101050.28;;;25.83;53.67
8585;BME280;7180;52.742;11.420;2022-08-23T12:43:18;100983.47;;;25.79;52.37
8585;BME280;7180;52.742;11.420;2022-08-23T12:45:59;101026.19;;;25.82;53.36
8585;BME280;7180;52.742;11.420;2022-08-23T12:48:28;101017.88;;;25.91;52.68
8585;BME280;7180;52.742;11.420;2022-08-23T12:51:00;100985.38;;;25.70;53.46
8585;BME280;7180;52.742;11.420;2022-08-23T12:53:30;100995.66;;;25.67;53.86
8585;BME280;7180;52.742;11.420;2022-08-23T12:56:06;101004.63;;;25.59;53.70
8585;BME280;7180;52.742;11.420;2022-08-23T12:58:36;101049.03;;;25.94;53.53
8585;BME280;7180;52.742;11.420;2022-08-23T13:01:17;101042.69;;;26.17;52.25
8585;BME280;7180;52.742;11.420;2022-08-23T13:03:47;101001.97;;;26.12;52.59
8585;BME280;7180;52.742;11.420;2022-08-23T13:06:15;100995.06;;;26.10;52.07
8585;BME280;7180;52.742;11.420;2022-08-23T13:08:54;100996.06;;;26.31;51.34
8585;BME280;7180;52.742;11.420;2022-08-23T13:11:21;100923.72;;;25.98;51.50
8585;BME280;7180;52.742;11.420;2022-08-23T13:13:48;100930.78;;;25.99;50.92
8585;BME280;7180;52.742;11.420;2022-08-23T13:21:40;100946.13;;;26.21;51.00
8585;BME280;7180;52.742;11.420;2022-08-23T13:24:25;100949.13;;;26.26;51.08
8585;BME280;7180;52.742;11.420;2022-08-23T13:26:51;100928.03;;;26.29;50.71
8585;BME280;7180;52.742;11.420;2022-08-23T13:31:55;100910.44;;;26.19;50.48
8585;BME280;7180;52.742;11.420;2022-08-23T13:37:02;100975.06;;;26.41;50.83
8585;BME280;7180;52.742;11.420;2022-08-23T13:39:29;100965.72;;;26.52;50.55
8585;BME280;7180;52.742;11.420;2022-08-23T13:41:55;100941.81;;;26.49;50.38
8585;BME280;7180;52.742;11.420;2022-08-23T13:44:20;100972.66;;;26.69;50.00
8585;BME280;7180;52.742;11.420;2022-08-23T13:46:46;100956.50;;;26.84;49.73
8585;BME280;7180;52.742;11.420;2022-08-23T13:49:16;100928.38;;;26.78;49.49
8585;BME280;7180;52.742;11.420;2022-08-23T13:52:01;100932.66;;;26.87;49.60
8585;BME280;7180;52.742;11.420;2022-08-23T13:54:28;100943.00;;;26.98;49.85
8585;BME280;7180;52.742;11.420;2022-08-23T13:56:58;100947.09;;;26.94;49.71
8585;BME280;7180;52.742;11.420;2022-08-23T14:01:52;100920.03;;;26.73;50.19
8585;BME280;7180;52.742;11.420;2022-08-23T14:04:18;100925.97;;;26.69;50.95
8585;BME280;7180;52.742;11.420;2022-08-23T14:06:43;100931.03;;;26.63;50.62
8585;BME280;7180;52.742;11.420;2022-08-23T14:09:08;100909.72;;;26.54;50.65
8585;BME280;7180;52.742;11.420;2022-08-23T14:11:34;100852.72;;;26.28;50.34
8585;BME280;7180;52.742;11.420;2022-08-23T14:13:59;100878.19;;;26.25;51.24
8585;BME280;7180;52.742;11.420;2022-08-23T14:16:30;100853.25;;;26.23;50.12
8585;BME280;7180;52.742;11.420;2022-08-23T14:18:56;100885.03;;;26.13;51.09
8585;BME280;7180;52.742;11.420;2022-08-23T14:21:22;100840.47;;;26.03;50.28
8585;BME280;7180;52.742;11.420;2022-08-23T14:23:47;100858.47;;;26.10;50.32
8585;BME280;7180;52.742;11.420;2022-08-23T14:26:17;100860.31;;;26.10;50.19
8585;BME280;7180;52.742;11.420;2022-08-23T14:28:44;100888.41;;;26.15;50.63
8585;BME280;7180;52.742;11.420;2022-08-23T14:31:10;100892.78;;;26.31;50.70
8585;BME280;7180;52.742;11.420;2022-08-23T14:33:36;100872.53;;;26.35;50.03
8585;BME280;7180;52.742;11.420;2022-08-23T14:36:02;100866.66;;;26.31;50.45
8585;BME280;7180;52.742;11.420;2022-08-23T14:38:27;100847.88;;;26.23;50.61
8585;BME280;7180;52.742;11.420;2022-08-23T14:40:57;100867.31;;;26.19;50.93
8585;BME280;7180;52.742;11.420;2022-08-23T14:43:24;100876.59;;;26.31;50.88
8585;BME280;7180;52.742;11.420;2022-08-23T14:45:49;100859.78;;;26.29;50.32
8585;BME280;7180;52.742;11.420;2022-08-23T14:48:15;100835.91;;;26.26;49.92
8585;BME280;7180;52.742;11.420;2022-08-23T14:50:41;100837.28;;;26.22;49.86
8585;BME280;7180;52.742;11.420;2022-08-23T14:53:07;100821.69;;;26.17;50.24
8585;BME280;7180;52.742;11.420;2022-08-23T14:55:33;100838.88;;;26.31;49.96
8585;BME280;7180;52.742;11.420;2022-08-23T14:57:58;100827.06;;;26.17;50.48
8585;BME280;7180;52.742;11.420;2022-08-23T15:00:24;100826.94;;;26.11;50.35
8585;BME280;7180;52.742;11.420;2022-08-23T15:02:49;100824.63;;;26.08;50.55
8585;BME280;7180;52.742;11.420;2022-08-23T15:05:15;100846.84;;;26.10;50.44
8585;BME280;7180;52.742;11.420;2022-08-23T15:07:41;100830.44;;;25.97;50.90
8585;BME280;7180;52.742;11.420;2022-08-23T15:10:07;100795.66;;;25.87;50.46
8585;BME280;7180;52.742;11.420;2022-08-23T15:12:34;100796.59;;;25.80;50.81
8585;BME280;7180;52.742;11.420;2022-08-23T15:15:00;100829.84;;;25.87;50.51
8585;BME280;7180;52.742;11.420;2022-08-23T15:17:25;100875.38;;;25.96;51.21
8585;BME280;7180;52.742;11.420;2022-08-23T15:19:50;100905.50;;;26.00;51.57
8585;BME280;7180;52.742;11.420;2022-08-23T15:22:16;100901.41;;;26.12;51.21
8585;BME280;7180;52.742;11.420;2022-08-23T15:24:41;100882.44;;;26.20;50.86
8585;BME280;7180;52.742;11.420;2022-08-23T15:27:07;100851.78;;;26.21;50.00
8585;BME280;7180;52.742;11.420;2022-08-23T15:29:32;100844.44;;;26.15;50.06
8585;BME280;7180;52.742;11.420;2022-08-23T15:31:57;100837.28;;;26.22;49.55
8585;BME280;7180;52.742;11.420;2022-08-23T15:34:23;100828.38;;;26.21;49.72
8585;BME280;7180;52.742;11.420;2022-08-23T15:36:49;100801.88;;;26.10;49.48
8585;BME280;7180;52.742;11.420;2022-08-23T15:39:14;100784.34;;;25.92;49.97
8585;BME280;7180;52.742;11.420;2022-08-23T15:41:40;100792.16;;;25.87;50.02
8585;BME280;7180;52.742;11.420;2022-08-23T15:44:05;100768.72;;;25.73;50.33
8585;BME280;7180;52.742;11.420;2022-08-23T15:46:30;100816.88;;;25.90;50.37
8585;BME280;7180;52.742;11.420;2022-08-23T15:49:02;100831.16;;;25.91;50.64
8585;BME280;7180;52.742;11.420;2022-08-23T15:51:29;100799.38;;;25.86;50.37
8585;BME280;7180;52.742;11.420;2022-08-23T15:53:55;100801.50;;;25.91;49.96
8585;BME280;7180;52.742;11.420;2022-08-23T15:56:33;100779.59;;;25.79;50.33
8585;BME280;7180;52.742;11.420;2022-08-23T15:58:59;100785.88;;;25.72;50.26
8585;BME280;7180;52.742;11.420;2022-08-23T16:01:24;100800.00;;;25.74;50.51
8585;BME280;7180;52.742;11.420;2022-08-23T16:03:51;100795.28;;;25.76;50.51
8585;BME280;7180;52.742;11.420;2022-08-23T16:06:17;100765.84;;;25.51;50.97
8585;BME280;7180;52.742;11.420;2022-08-23T16:08:44;100829.06;;;25.63;51.12
8585;BME280;7180;52.742;11.420;2022-08-23T16:11:11;100854.63;;;25.82;51.05
8585;BME280;7180;52.742;11.420;2022-08-23T16:13:41;100833.34;;;25.73;50.84
8585;BME280;7180;52.742;11.420;2022-08-23T16:16:18;100853.50;;;25.77;51.37
8585;BME280;7180;52.742;11.420;2022-08-23T16:18:45;100846.88;;;25.64;51.60
8585;BME280;7180;52.742;11.420;2022-08-23T16:21:11;100831.81;;;25.55;51.89
8585;BME280;7180;52.742;11.420;2022-08-23T16:23:37;100858.69;;;25.63;51.54
8585;BME280;7180;52.742;11.420;2022-08-23T16:26:07;100878.47;;;25.71;51.66
8585;BME280;7180;52.742;11.420;2022-08-23T16:28:33;100834.31;;;25.57;51.62
8585;BME280;7180;52.742;11.420;2022-08-23T16:30:58;100810.19;;;25.41;51.85
8585;BME280;7180;52.742;11.420;2022-08-23T16:33:24;100852.03;;;25.51;51.58
8585;BME280;7180;52.742;11.420;2022-08-23T16:35:49;100860.75;;;25.53;51.72
8585;BME280;7180;52.742;11.420;2022-08-23T16:38:14;100835.63;;;25.38;52.19
8585;BME280;7180;52.742;11.420;2022-08-23T16:40:39;100856.81;;;25.41;51.91
8585;BME280;7180;52.742;11.420;2022-08-23T16:43:05;100856.63;;;25.43;52.29
8585;BME280;7180;52.742;11.420;2022-08-23T16:45:30;100871.94;;;25.42;52.64
8585;BME280;7180;52.742;11.420;2022-08-23T16:47:56;100877.34;;;25.34;52.60
8585;BME280;7180;52.742;11.420;2022-08-23T16:50:21;100867.59;;;25.33;52.59
8585;BME280;7180;52.742;11.420;2022-08-23T16:52:46;100892.66;;;25.34;52.99
8585;BME280;7180;52.742;11.420;2022-08-23T16:55:12;100872.06;;;25.18;53.11
8585;BME280;7180;52.742;11.420;2022-08-23T16:57:38;100883.41;;;25.06;53.43
8585;BME280;7180;52.742;11.420;2022-08-23T17:00:06;100884.22;;;25.06;53.39
8585;BME280;7180;52.742;11.420;2022-08-23T17:02:35;100918.75;;;24.95;54.81
8585;BME280;7180;52.742;11.420;2022-08-23T17:05:03;100917.06;;;24.94;54.39
8585;BME280;7180;52.742;11.420;2022-08-23T17:07:29;100916.50;;;25.06;53.65
8585;BME280;7180;52.742;11.420;2022-08-23T17:09:54;100897.38;;;25.01;53.42
8585;BME280;7180;52.742;11.420;2022-08-23T17:12:20;100873.81;;;25.03;52.39
8585;BME280;7180;52.742;11.420;2022-08-23T17:14:46;100868.13;;;24.98;52.52
8585;BME280;7180;52.742;11.420;2022-08-23T17:17:13;100841.63;;;24.87;52.86
8585;BME280;7180;52.742;11.420;2022-08-23T17:19:39;100851.91;;;24.76;52.80
8585;BME280;7180;52.742;11.420;2022-08-23T17:22:05;100850.75;;;24.70;52.80
8585;BME280;7180;52.742;11.420;2022-08-23T17:24:30;100863.91;;;24.57;53.67
8585;BME280;7180;52.742;11.420;2022-08-23T17:26:56;100918.28;;;24.75;53.74
8585;BME280;7180;52.742;11.420;2022-08-23T17:29:21;100925.72;;;24.73;54.09
8585;BME280;7180;52.742;11.420;2022-08-23T17:31:46;100927.53;;;24.64;54.37
8585;BME280;7180;52.742;11.420;2022-08-23T17:34:11;100930.75;;;24.60;54.12
8585;BME280;7180;52.742;11.420;2022-08-23T17:36:42;100913.31;;;24.48;54.67
8585;BME280;7180;52.742;11.420;2022-08-23T17:39:11;100912.69;;;24.30;54.95
8585;BME280;7180;52.742;11.420;2022-08-23T17:41:39;100911.34;;;24.10;55.38
8585;BME280;7180;52.742;11.420;2022-08-23T17:44:05;100928.25;;;23.94;55.78
8585;BME280;7180;52.742;11.420;2022-08-23T17:46:34;100951.22;;;23.73;56.88
8585;BME280;7180;52.742;11.420;2022-08-23T17:48:59;100964.66;;;23.64;56.86
8585;BME280;7180;52.742;11.420;2022-08-23T17:51:24;100960.25;;;23.55;57.74
8585;BME280;7180;52.742;11.420;2022-08-23T17:53:50;100975.47;;;23.47;57.15
8585;BME280;7180;52.742;11.420;2022-08-23T17:56:15;100974.28;;;23.33;57.77
8585;BME280;7180;52.742;11.420;2022-08-23T17:58:40;100981.19;;;23.10;58.14
8585;BME280;7180;52.742;11.420;2022-08-23T18:01:06;101000.66;;;22.87;59.87
8585;BME280;7180;52.742;11.420;2022-08-23T18:03:32;101017.00;;;22.76;60.12
8585;BME280;7180;52.742;11.420;2022-08-23T18:05:57;101009.31;;;22.55;60.08
8585;BME280;7180;52.742;11.420;2022-08-23T18:08:23;101032.75;;;22.35;61.34
8585;BME280;7180;52.742;11.420;2022-08-23T18:10:49;101038.44;;;22.15;62.11
8585;BME280;7180;52.742;11.420;2022-08-23T18:13:14;101052.25;;;21.93;62.99
8585;BME280;7180;52.742;11.420;2022-08-23T18:15:39;101063.31;;;21.80;62.88
8585;BME280;7180;52.742;11.420;2022-08-23T18:18:05;101097.16;;;21.72;63.13
8585;BME280;7180;52.742;11.420;2022-08-23T18:20:30;101097.03;;;21.63;63.71
8585;BME280;7180;52.742;11.420;2022-08-23T18:22:57;101104.72;;;21.49;64.07
8585;BME280;7180;52.742;11.420;2022-08-23T18:25:23;101105.19;;;21.35;64.63
8585;BME280;7180;52.742;11.420;2022-08-23T18:27:48;101110.16;;;21.20;65.04
8585;BME280;7180;52.742;11.420;2022-08-23T18:30:38;101127.22;;;21.19;64.72
8585;BME280;7180;52.742;11.420;2022-08-23T18:33:05;101117.63;;;21.17;64.26
8585;BME280;7180;52.742;11.420;2022-08-23T18:35:32;101108.34;;;21.11;64.04
8585;BME280;7180;52.742;11.420;2022-08-23T18:37:58;101132.56;;;21.10;63.88
8585;BME280;7180;52.742;11.420;2022-08-23T18:40:25;101128.94;;;21.01;63.80
8585;BME280;7180;52.742;11.420;2022-08-23T18:42:51;101133.81;;;20.96;64.28
8585;BME280;7180;52.742;11.420;2022-08-23T18:45:18;101146.75;;;20.91;64.40
8585;BME280;7180;52.742;11.420;2022-08-23T18:47:43;101164.91;;;20.88;65.00
8585;BME280;7180;52.742;11.420;2022-08-23T18:50:10;101180.00;;;20.89;65.24
8585;BME280;7180;52.742;11.420;2022-08-23T18:52:36;101196.69;;;20.91;65.20
8585;BME280;7180;52.742;11.420;2022-08-23T18:55:02;101202.63;;;20.85;65.75
8585;BME280;7180;52.742;11.420;2022-08-23T18:57:28;101197.69;;;20.80;65.44
8585;BME280;7180;52.742;11.420;2022-08-23T18:59:53;101199.50;;;20.60;66.25
8585;BME280;7180;52.742;11.420;2022-08-23T19:02:18;101207.66;;;20.40;67.34
8585;BME280;7180;52.742;11.420;2022-08-23T19:04:44;101209.78;;;20.16;68.14
8585;BME280;7180;52.742;11.420;2022-08-23T19:07:10;101216.75;;;19.98;69.07
8585;BME280;7180;52.742;11.420;2022-08-23T19:09:35;101231.28;;;19.84;69.62
8585;BME280;7180;52.742;11.420;2022-08-23T19:12:02;101235.59;;;19.76;70.36
8585;BME280;7180;52.742;11.420;2022-08-23T19:14:28;101261.25;;;19.67;70.92
8585;BME280;7180;52.742;11.420;2022-08-23T19:16:54;101277.28;;;19.67;70.60
8585;BME280;7180;52.742;11.420;2022-08-23T19:19:20;101277.78;;;19.61;70.72
8585;BME280;7180;52.742;11.420;2022-08-23T19:21:46;101290.09;;;19.52;70.90
8585;BME280;7180;52.742;11.420;2022-08-23T19:24:11;101302.97;;;19.47;71.15
8585;BME280;7180;52.742;11.420;2022-08-23T19:26:37;101316.81;;;19.41;71.43
8585;BME280;7180;52.742;11.420;2022-08-23T19:29:07;101321.09;;;19.33;71.88
8585;BME280;7180;52.742;11.420;2022-08-23T19:31:32;101332.09;;;19.28;72.22